Dixiana, SC

6:01 AM EDT on September 20, 2014 (GMT -0400)
J and M Weather Station | Change Station
CLOSE
Current Station
Personal Weather Station
Location: Lexington, SC
Elevation: 315 ft
Nearby Weather Stations

Elev 315 ft 33.99 °N, 81.14 °W | Updated 6 seconds ago

Clear
Clear
63.3 °F
Feels Like 63.3 °F
N
1.6
Wind Variable Wind from South
Gusts 3.1 mph

Today
High -- | Low -- °F
--% Chance of Precip.
Yesterday
High -- | Low -- °F
Precip. -- in
7:11 AM 7:23 PM
Waning Crescent, 13% visible
Pressure 30.11 in
Visibility 10.0 miles
Clouds Few 6000 ft
Dew Point 62 °F
Humidity 96%
Rainfall 0.00 in
Snow Depth Not available.
UV 0 out of 12
Pollen 7.90 out of 12
Ozone Good
Flu Activity Not available.
METAR KCAE 200856Z 06009KT 10SM FEW060 20/14 A3011 RMK AO2 SLP194 T02000144 56009

More Conditions Fewer Conditions

Pressure 30.11 in
Visibility 10.0 miles
Clouds Few 6000 ft
Dew Point 62 °F
Humidity 96%
Rainfall 0.00 in
Snow Depth Not available.
UV 0 out of 12
Pollen 7.90 out of 12
Ozone Good
Flu Activity Not available.
METAR KCAE 200856Z 06009KT 10SM FEW060 20/14 A3011 RMK AO2 SLP194 T02000144 56009

More Conditions Fewer Conditions

10-Day Weather Forecast

Almanac

Astronomy

Sep. 20, 2014 Rise Set
Actual Time 7:11 AM EDT 7:23 PM EDT
Civil Twilight 6:46 AM EDT 7:48 PM EDT
Nautical Twilight 6:16 AM EDT 8:18 PM EDT
Astronomical Twilight 5:47 AM EDT 8:47 PM EDT
Moon 3:56 AM EDT 5:20 PM EDT
Length of Visible Light 13h 02m
Length of Day
12h 12m
Tomorrow will be 2m 6s shorter.
Waning Crescent, 13% of the Moon is Illuminated
Today
Waning Crescent
Sep 24
New
Oct 1
First Quarter
Oct 8
Full
Oct 15
Last Quarter

Today's Extremes

State Highs State Lows

Community

WunderPhotos

Upload Photos

1,754,820 photos uploaded!

WunderBlogs® & News

Nearby

Air Quality

  Air Quality AQ Index Pollutant
Yesterday Good
OZONE
Current Good
OZONE
Saturday Good
OZONE

Snow Depth

Station Depth Elevation
No new snow has been reported.

Earthquake Activity

City Distance Mag. Time & Date
New Ellenton, South Carolina 51 miles 2.6 4:38 PM EDT
2014-09-19
Minimum magnitude displayed is 2.5.

Coastal Water Temperatures

Place Temperature
No Stations Reporting

Nearby Weather Stations